Aérodrome :
LOGIN :

S'inscrire | Disclaimer

   EN    FR    IT 

 










Légende :    VFR   VFR Marginal   IFR   IFR Intensif   IFR Très Intensif
Visi : 
Plafond : 
>= 8 km
>= 3000ft
5 à 8 km
1000 à 3000 ft
1500m à 5 km
500 à 1000 ft
800 à 1500m
200 à 500 ft
< 800m
< 200 ft
Symboles :   Orages  Brouillard  Fortes neiges  Fortes précipitations  Vent > 20 kt
SIGMETs :   Divers  Orages  Givrage  Turbulence  Onde Orograph.  Cendres Volcan.







- Altitude de l'aérodrome : 53 ft
- Code IATA : HAM


EDDH - Hamburg

DERNIER METAR :
  • 241320Z 32021KT 270V340 9999 FEW036TCU FEW040CB SCT050 12/03 Q1027 TEMPO 32025G35KT

METARs EXPIRÉS :
  • 241250Z 32023G35KT 9999 -SHRA FEW030 FEW035TCU BKN042CB 11/03 Q1027 NOSIG
  • 241220Z 30015KT 9999 -SHRA FEW028 FEW030TCU FEW035CB SCT140 13/04 Q1027 TEMPO 30020G35KT
  • 241150Z 30014KT 270V330 9999 VCSH FEW030TCU FEW035CB SCT110 13/05 Q1027 TEMPO 30020G35KT
  • 241120Z 28013KT 9999 FEW034CB SCT100 11/05 Q1026 TEMPO 30020G35KT
  • 241050Z 27012KT 240V300 9999 SCT034CB SCT100 11/04 Q1026 TEMPO 30020G35KT

TAF TAF EDDH
Valide du 24 à 12h jusqu'au 25 à 18h UTC


241100Z 2412/2518 30015G25KT 9999 SCT035
TEMPO 2412/2415 32020G35KT 4000 SHRA BKN015CB
PROB30
TEMPO 2412/2415 TSRA
BECMG 2417/2419 30010KT
BECMG 2421/2423 28005KT
Pas de NOTAMs connus pour ce terrain.



MET'MAP, la Météo Aéronautique d'un coup d'oeil ! - Copyright ORBIFLY Décembre 2007 - Disclaimer

ORBIFLY MET'MAP TEAM :

Programmation & Développement : Alexandra Zaïnal
Conception & Développement : Baudouin d'Aumeries
Co-Programmation & Développement : Marc-Olivier Méhu
Soutien technique & logistique : Manuel Goepfert

Contact : metmap@orbifly.com




SOURCES & CREDITS :

   NOAA